Time;durP1;ratioP1;P1;durP2;ratioP2;P2;SDS_P1;SDS_P2;PMS_P1;PMS_P2;Temp;Humidity;BMP_temperature;BMP_pressure;BME280_temperature;BME280_humidity;BME280_pressure;Samples;Min_cycle;Max_cycle;Signal;HPM_P1;HPM_P2
2022/08/20 00:01:11;;;;;;;11.00;7.20;;;21.60;90.90;;;;;;5096188;28;20216;-66
2022/08/20 00:03:40;;;;;;;10.20;6.77;;;21.60;90.90;;;;;;5113328;27;20187;-66
2022/08/20 00:06:21;;;;;;;10.00;7.50;;;21.60;90.90;;;;;;5110964;27;20212;-66
2022/08/20 00:08:49;;;;;;;11.80;7.97;;;21.60;90.90;;;;;;5116923;27;20204;-66
2022/08/20 00:11:23;;;;;;;8.60;7.03;;;21.60;90.90;;;;;;5077276;27;20225;-66
2022/08/20 00:13:54;;;;;;;7.30;6.60;;;21.60;91.00;;;;;;5112088;27;20203;-66
2022/08/20 00:16:25;;;;;;;7.77;6.97;;;21.60;91.00;;;;;;5117593;27;20538;-66
2022/08/20 00:18:53;;;;;;;8.63;7.30;;;21.60;91.00;;;;;;5115104;27;20265;-66
2022/08/20 00:21:20;;;;;;;7.57;6.70;;;21.60;91.00;;;;;;5096225;27;20218;-66
2022/08/20 00:23:52;;;;;;;8.83;7.83;;;21.50;90.90;;;;;;5087928;27;20657;-66
2022/08/20 00:26:20;;;;;;;7.67;6.87;;;21.50;91.10;;;;;;5094987;27;20693;-66
2022/08/20 00:28:47;;;;;;;7.77;6.73;;;21.50;91.20;;;;;;5100509;27;20236;-66
2022/08/20 00:31:18;;;;;;;9.57;6.93;;;21.50;91.20;;;;;;5115858;27;20240;-66
2022/08/20 00:33:46;;;;;;;7.60;6.83;;;21.50;91.10;;;;;;5118074;27;20574;-66
2022/08/20 00:36:16;;;;;;;8.80;6.20;;;21.50;91.20;;;;;;5122662;27;20300;-66
2022/08/20 00:38:45;;;;;;;7.73;6.93;;;21.50;91.20;;;;;;5120122;27;20199;-66
2022/08/20 00:41:20;;;;;;;11.13;7.50;;;21.50;91.20;;;;;;5118708;27;20207;-66
2022/08/20 00:44:04;;;;;;;10.73;6.70;;;21.50;91.20;;;;;;5093374;28;20201;-66
2022/08/20 00:46:33;;;;;;;11.50;6.20;;;21.50;91.30;;;;;;5093018;28;20508;-66
2022/08/20 00:49:02;;;;;;;7.07;6.00;;;21.40;91.30;;;;;;5123589;27;20204;-66
2022/08/20 00:51:37;;;;;;;6.43;5.83;;;21.40;91.30;;;;;;5113448;27;20327;-66
2022/08/20 00:54:15;;;;;;;7.40;5.40;;;21.40;91.30;;;;;;5117352;27;20195;-66
2022/08/20 00:56:47;;;;;;;6.70;5.40;;;21.40;91.30;;;;;;5116512;27;20523;-66
2022/08/20 00:59:19;;;;;;;6.53;5.80;;;21.40;91.30;;;;;;5096701;27;20214;-66
2022/08/20 01:01:47;;;;;;;6.33;5.43;;;21.40;91.30;;;;;;5110058;27;20597;-66
2022/08/20 01:04:27;;;;;;;6.10;5.10;;;21.40;91.30;;;;;;5084898;28;20208;-66
2022/08/20 01:06:55;;;;;;;7.97;4.83;;;21.30;91.20;;;;;;5106291;27;20768;-66
2022/08/20 01:09:23;;;;;;;5.20;4.70;;;21.30;91.20;;;;;;5094023;27;20845;-66
2022/08/20 01:12:12;;;;;;;5.10;4.03;;;21.30;91.30;;;;;;5101155;27;20622;-66
2022/08/20 01:14:45;;;;;;;15.57;5.33;;;21.30;91.30;;;;;;5113567;27;20196;-66
2022/08/20 01:17:17;;;;;;;4.33;3.93;;;21.30;91.30;;;;;;5098661;27;20610;-66
2022/08/20 01:19:56;;;;;;;5.93;4.27;;;21.30;91.20;;;;;;5087465;28;20239;-66
2022/08/20 01:25:40;;;;;;;6.27;4.83;;;21.20;91.10;;;;;;5110566;27;20203;-66
2022/08/20 01:28:09;;;;;;;7.47;4.80;;;21.20;91.10;;;;;;5103877;27;20207;-66
2022/08/20 01:30:36;;;;;;;5.00;4.50;;;21.20;91.10;;;;;;5103231;27;20214;-66
2022/08/20 01:33:04;;;;;;;5.53;5.03;;;21.20;91.20;;;;;;5114849;27;20211;-66
2022/08/20 01:35:36;;;;;;;5.03;4.53;;;21.10;91.20;;;;;;5113180;27;20192;-66
2022/08/20 01:38:04;;;;;;;6.40;5.37;;;21.10;91.20;;;;;;5110207;27;20207;-66
2022/08/20 01:41:06;;;;;;;6.63;4.57;;;21.10;91.20;;;;;;5104332;27;20196;-66
2022/08/20 01:43:33;;;;;;;6.90;4.60;;;21.10;91.20;;;;;;5099341;28;20199;-66
2022/08/20 01:46:03;;;;;;;5.07;4.27;;;21.10;91.20;;;;;;5117327;27;20222;-66
2022/08/20 01:48:30;;;;;;;5.47;4.87;;;21.10;91.20;;;;;;5099887;27;20233;-66
2022/08/20 01:51:04;;;;;;;6.33;4.60;;;21.00;91.30;;;;;;5108958;28;20223;-66
2022/08/20 01:53:36;;;;;;;5.37;4.80;;;21.00;91.40;;;;;;5091885;27;20813;-66
2022/08/20 01:56:06;;;;;;;5.37;4.87;;;21.00;91.40;;;;;;5113084;27;20195;-66
2022/08/20 01:58:36;;;;;;;6.10;4.87;;;21.00;91.50;;;;;;5112293;27;20215;-66
2022/08/20 02:01:04;;;;;;;6.20;4.77;;;21.00;91.60;;;;;;5100122;28;20202;-66
2022/08/20 02:03:31;;;;;;;5.40;5.00;;;21.00;91.80;;;;;;5099075;27;20200;-66
2022/08/20 02:06:05;;;;;;;8.33;5.40;;;21.00;91.40;;;;;;5117780;27;20651;-66
2022/08/20 02:08:32;;;;;;;5.50;5.00;;;21.00;91.50;;;;;;5111115;28;20204;-66
2022/08/20 02:10:59;;;;;;;5.93;5.43;;;21.00;91.60;;;;;;5108193;28;20206;-66
2022/08/20 02:13:26;;;;;;;7.20;5.73;;;20.90;91.60;;;;;;5103489;28;20198;-66
2022/08/20 02:15:54;;;;;;;8.43;5.20;;;21.00;91.70;;;;;;5098757;28;20196;-66
2022/08/20 02:18:21;;;;;;;7.67;4.67;;;20.90;91.60;;;;;;5076683;28;20204;-66
2022/08/20 02:20:50;;;;;;;7.40;5.17;;;21.00;91.70;;;;;;5079972;28;20196;-66
2022/08/20 02:23:17;;;;;;;5.07;4.57;;;21.00;91.70;;;;;;5081976;28;20254;-66
2022/08/20 02:25:46;;;;;;;6.07;5.07;;;21.00;91.80;;;;;;5097619;28;20197;-66
2022/08/20 02:28:16;;;;;;;5.87;4.50;;;21.00;91.70;;;;;;5082694;28;20568;-66
2022/08/20 02:30:46;;;;;;;7.77;5.40;;;21.00;91.60;;;;;;5079887;28;20209;-66
2022/08/20 02:33:17;;;;;;;5.87;4.80;;;21.00;91.60;;;;;;5075104;28;20201;-66
2022/08/20 02:35:47;;;;;;;5.87;5.27;;;21.00;91.60;;;;;;5071584;28;20193;-66
2022/08/20 02:38:15;;;;;;;5.77;5.20;;;21.00;91.60;;;;;;5068933;28;20227;-66
2022/08/20 02:40:44;;;;;;;5.20;4.67;;;21.00;91.60;;;;;;5071174;28;20637;-66
2022/08/20 02:43:11;;;;;;;9.30;5.40;;;21.00;91.50;;;;;;5079582;28;20223;-66
2022/08/20 02:45:42;;;;;;;6.00;5.40;;;21.00;91.50;;;;;;5075123;28;20212;-66
2022/08/20 02:48:19;;;;;;;6.83;5.00;;;21.00;91.50;;;;;;5085525;28;20209;-66
2022/08/20 02:50:53;;;;;;;7.57;4.30;;;21.00;91.50;;;;;;5078892;28;20216;-66
2022/08/20 02:53:21;;;;;;;7.47;5.80;;;21.00;91.50;;;;;;5078737;28;20185;-66
2022/08/20 02:55:48;;;;;;;5.77;5.17;;;21.00;91.60;;;;;;5072032;28;20217;-66
2022/08/20 02:58:16;;;;;;;5.43;4.63;;;21.00;91.50;;;;;;5077221;28;20217;-66
2022/08/20 03:00:44;;;;;;;9.57;4.67;;;21.00;91.50;;;;;;5074139;28;20198;-66
2022/08/20 03:03:12;;;;;;;6.57;5.33;;;21.00;91.50;;;;;;5077743;28;20631;-66
2022/08/20 03:05:42;;;;;;;7.03;4.87;;;21.00;91.50;;;;;;5073328;28;20215;-66
2022/08/20 03:08:11;;;;;;;5.20;4.70;;;21.00;91.50;;;;;;5081451;28;20217;-66
2022/08/20 03:10:40;;;;;;;5.93;4.57;;;21.00;91.40;;;;;;5077436;28;20223;-66
2022/08/20 03:13:11;;;;;;;7.53;4.80;;;21.00;91.50;;;;;;5084444;28;20242;-66
2022/08/20 03:15:45;;;;;;;7.03;4.90;;;21.00;91.40;;;;;;5087775;28;20254;-66
2022/08/20 03:18:13;;;;;;;5.40;4.80;;;21.00;91.40;;;;;;5112023;27;20324;-66
2022/08/20 03:20:41;;;;;;;6.57;5.03;;;21.00;91.40;;;;;;5109915;27;20200;-66
2022/08/20 03:23:12;;;;;;;5.23;4.37;;;21.00;91.40;;;;;;5097944;27;20195;-66
2022/08/20 03:25:39;;;;;;;8.10;4.90;;;21.00;91.50;;;;;;5120471;27;20203;-66
2022/08/20 03:28:07;;;;;;;5.97;4.67;;;21.00;91.60;;;;;;5119391;27;20203;-66
2022/08/20 03:30:35;;;;;;;5.50;4.73;;;21.00;91.50;;;;;;5117592;27;20216;-66
2022/08/20 03:33:03;;;;;;;5.83;5.07;;;20.90;91.60;;;;;;5085288;27;20220;-66
2022/08/20 03:35:31;;;;;;;5.63;4.60;;;20.90;91.60;;;;;;5103077;27;20534;-66
2022/08/20 03:37:58;;;;;;;6.03;4.90;;;20.90;91.70;;;;;;5092439;27;20207;-66
2022/08/20 03:40:29;;;;;;;7.37;4.63;;;20.90;91.60;;;;;;5095898;27;20211;-66
2022/08/20 03:42:57;;;;;;;5.00;4.50;;;21.00;91.70;;;;;;5095656;28;20222;-66
2022/08/20 03:45:26;;;;;;;4.97;4.53;;;20.90;91.70;;;;;;5107730;27;20208;-66
2022/08/20 03:47:54;;;;;;;8.67;5.10;;;21.00;91.70;;;;;;5101807;27;20644;-66
2022/08/20 03:50:26;;;;;;;6.47;5.80;;;21.00;91.60;;;;;;5087700;27;20278;-66
2022/08/20 03:52:54;;;;;;;6.13;4.50;;;20.90;91.60;;;;;;5100575;27;20252;-66
2022/08/20 03:55:22;;;;;;;5.20;4.70;;;20.90;91.50;;;;;;5115361;27;20205;-66
2022/08/20 03:57:53;;;;;;;5.60;4.77;;;20.90;91.40;;;;;;5121993;27;20216;-66
2022/08/20 04:00:27;;;;;;;9.07;4.80;;;20.80;91.40;;;;;;5117075;27;20226;-66
2022/08/20 04:02:55;;;;;;;7.50;5.20;;;20.80;91.60;;;;;;5089006;27;20568;-66
2022/08/20 04:05:29;;;;;;;5.50;5.00;;;20.80;91.70;;;;;;5110716;27;20212;-66
2022/08/20 04:07:58;;;;;;;8.33;5.60;;;20.70;91.80;;;;;;5110394;27;20209;-66
2022/08/20 04:10:30;;;;;;;8.07;5.80;;;20.70;91.80;;;;;;5119291;27;20208;-66
2022/08/20 04:12:57;;;;;;;6.17;5.53;;;20.70;91.70;;;;;;5117875;27;20557;-66
2022/08/20 04:15:25;;;;;;;7.37;5.50;;;20.70;91.70;;;;;;5119957;27;20195;-66
2022/08/20 04:17:52;;;;;;;8.43;6.10;;;20.70;91.70;;;;;;5121998;27;20234;-66
2022/08/20 04:21:00;;;;;;;9.17;5.73;;;20.70;91.70;;;;;;5103432;27;20210;-67
2022/08/20 04:23:29;;;;;;;6.53;5.93;;;20.70;91.80;;;;;;5086778;27;20208;-67
2022/08/20 04:25:57;;;;;;;7.93;6.90;;;20.70;91.80;;;;;;5088473;27;20201;-67
2022/08/20 04:28:27;;;;;;;7.50;6.30;;;20.70;91.80;;;;;;5087380;28;20265;-66
2022/08/20 04:30:57;;;;;;;7.07;6.37;;;20.70;91.80;;;;;;5115560;27;20610;-66
2022/08/20 04:33:26;;;;;;;9.17;6.60;;;20.70;91.80;;;;;;5117732;27;20279;-66
2022/08/20 04:36:04;;;;;;;8.10;6.93;;;20.70;91.90;;;;;;5114162;27;20200;-66
2022/08/20 04:38:32;;;;;;;8.07;6.77;;;20.70;92.00;;;;;;5123725;27;20199;-66
2022/08/20 04:41:20;;;;;;;8.70;7.23;;;20.70;92.00;;;;;;5084813;28;20204;-66
2022/08/20 04:43:52;;;;;;;8.00;7.07;;;20.70;91.90;;;;;;5106497;27;20555;-66
2022/08/20 04:46:24;;;;;;;8.67;7.07;;;20.70;91.90;;;;;;5124092;27;20218;-66
2022/08/20 04:48:52;;;;;;;8.93;7.20;;;20.70;91.90;;;;;;5101049;28;20224;-67
2022/08/20 04:51:20;;;;;;;8.00;7.20;;;20.80;92.00;;;;;;5092960;27;20191;-67
2022/08/20 04:53:50;;;;;;;8.27;7.23;;;20.80;92.10;;;;;;5097216;28;20296;-67
2022/08/20 04:56:25;;;;;;;7.77;6.70;;;20.80;92.00;;;;;;5115119;27;20237;-67
2022/08/20 04:58:55;;;;;;;8.33;7.53;;;20.80;92.00;;;;;;5118948;27;20204;-67
2022/08/20 05:01:24;;;;;;;9.30;7.47;;;20.90;92.00;;;;;;5115250;27;20224;-67
2022/08/20 05:03:54;;;;;;;10.43;7.20;;;20.90;92.00;;;;;;5100150;28;20215;-67
2022/08/20 05:06:27;;;;;;;9.27;7.40;;;21.00;92.00;;;;;;5109205;27;20213;-67
2022/08/20 05:08:56;;;;;;;9.17;6.77;;;21.00;92.00;;;;;;5097061;28;20221;-67
2022/08/20 05:11:24;;;;;;;9.83;7.30;;;21.00;91.90;;;;;;5106438;27;20205;-67
2022/08/20 05:14:04;;;;;;;7.83;6.93;;;21.00;91.90;;;;;;5110936;27;20290;-67
2022/08/20 05:16:37;;;;;;;14.73;7.00;;;21.10;91.90;;;;;;5086151;28;20240;-67
2022/08/20 05:19:12;;;;;;;7.37;6.73;;;21.20;91.90;;;;;;5117091;27;20227;-67
2022/08/20 05:21:39;;;;;;;7.83;7.03;;;21.20;91.80;;;;;;5117287;27;20207;-67
2022/08/20 05:24:07;;;;;;;7.97;7.17;;;21.30;91.80;;;;;;5113034;27;20227;-67
2022/08/20 05:26:35;;;;;;;10.57;6.27;;;21.30;91.70;;;;;;5098403;28;20227;-67
2022/08/20 05:29:03;;;;;;;7.60;6.20;;;21.40;91.70;;;;;;5090448;28;20320;-67
2022/08/20 05:31:32;;;;;;;7.23;6.53;;;21.40;91.60;;;;;;5085841;28;20253;-67
2022/08/20 05:34:08;;;;;;;8.47;7.40;;;21.50;91.60;;;;;;5094356;28;20235;-67
2022/08/20 05:36:41;;;;;;;10.10;7.23;;;21.70;91.40;;;;;;5090490;28;20185;-67
2022/08/20 05:39:09;;;;;;;7.00;6.40;;;22.00;91.00;;;;;;5092944;28;20612;-67
2022/08/20 05:41:37;;;;;;;6.07;5.57;;;22.10;90.80;;;;;;5095237;28;20682;-67
2022/08/20 05:44:09;;;;;;;6.70;6.00;;;22.20;90.90;;;;;;5088984;28;20208;-67
2022/08/20 05:46:40;;;;;;;7.03;5.30;;;22.30;90.30;;;;;;5092180;28;20203;-67
2022/08/20 05:49:12;;;;;;;5.27;4.77;;;22.40;90.10;;;;;;5104790;28;20193;-67
2022/08/20 05:51:39;;;;;;;7.23;4.97;;;22.50;90.10;;;;;;5096837;28;20204;-67
2022/08/20 05:54:06;;;;;;;6.07;4.37;;;22.50;89.90;;;;;;5093186;28;20219;-67
2022/08/20 05:56:34;;;;;;;6.40;4.13;;;22.60;89.70;;;;;;5085923;28;20655;-67
2022/08/20 05:59:04;;;;;;;5.63;4.40;;;22.70;89.40;;;;;;5087135;28;20223;-67
2022/08/20 06:01:32;;;;;;;4.27;3.97;;;22.90;89.00;;;;;;5092957;28;20839;-67
2022/08/20 06:06:46;;;;;;;4.90;4.33;;;23.10;88.50;;;;;;5095913;28;20218;-67
2022/08/20 06:09:16;;;;;;;5.27;4.07;;;23.20;88.20;;;;;;5097289;28;20239;-67
2022/08/20 06:12:00;;;;;;;4.57;4.17;;;23.30;87.60;;;;;;5096532;28;20205;-67
2022/08/20 06:14:27;;;;;;;5.87;3.93;;;23.40;86.90;;;;;;5094995;28;20213;-67
2022/08/20 06:17:00;;;;;;;5.27;4.10;;;23.60;86.50;;;;;;5106741;28;20612;-67
2022/08/20 06:19:28;;;;;;;4.07;3.77;;;23.70;85.90;;;;;;5122967;28;20207;-67
2022/08/20 06:21:59;;;;;;;5.37;4.33;;;23.80;85.30;;;;;;5123592;28;20589;-67
2022/08/20 06:24:26;;;;;;;7.30;3.67;;;24.00;84.70;;;;;;5110403;28;20196;-67
2022/08/20 06:26:58;;;;;;;5.83;3.97;;;24.10;84.20;;;;;;5065007;28;20219;-67
2022/08/20 06:29:27;;;;;;;5.53;4.47;;;24.20;83.70;;;;;;5111338;28;20200;-67
2022/08/20 06:31:54;;;;;;;4.27;3.80;;;24.30;83.20;;;;;;5099404;28;20198;-67
2022/08/20 06:34:25;;;;;;;5.53;4.50;;;24.40;82.80;;;;;;5107843;28;20223;-67
2022/08/20 06:36:52;;;;;;;5.00;4.60;;;24.50;82.20;;;;;;5115302;28;20229;-67
2022/08/20 06:39:19;;;;;;;6.20;4.37;;;24.60;81.50;;;;;;5088558;28;20265;-67
2022/08/20 06:41:46;;;;;;;4.73;4.20;;;24.70;81.00;;;;;;5105709;28;20207;-67
2022/08/20 06:44:14;;;;;;;9.33;5.13;;;24.80;80.50;;;;;;5105472;28;20236;-67
2022/08/20 06:46:42;;;;;;;5.37;4.53;;;24.90;78.60;;;;;;5093985;28;20199;-67
2022/08/20 06:49:09;;;;;;;6.33;4.77;;;24.90;78.80;;;;;;5117568;28;20211;-67
2022/08/20 06:51:36;;;;;;;6.43;4.20;;;25.00;78.80;;;;;;5122494;28;20819;-67
2022/08/20 06:54:05;;;;;;;5.10;4.60;;;25.10;78.60;;;;;;5122915;28;20224;-67
2022/08/20 06:56:33;;;;;;;6.17;4.70;;;25.20;78.10;;;;;;5099491;28;20629;-67
2022/08/20 06:59:00;;;;;;;4.90;4.23;;;25.30;78.00;;;;;;5111581;28;20201;-67
2022/08/20 07:01:27;;;;;;;8.60;4.63;;;25.40;77.30;;;;;;5091127;28;20284;-67
2022/08/20 07:03:57;;;;;;;5.03;4.23;;;25.50;77.00;;;;;;5103992;28;20738;-66
2022/08/20 07:06:25;;;;;;;5.83;4.17;;;25.60;76.70;;;;;;5116485;28;20735;-66
2022/08/20 07:08:54;;;;;;;4.60;4.23;;;25.70;76.30;;;;;;5114493;27;20221;-66
2022/08/20 07:11:21;;;;;;;6.30;4.53;;;25.80;76.10;;;;;;5113544;27;20215;-66
2022/08/20 07:13:55;;;;;;;5.67;4.20;;;25.90;74.80;;;;;;5119559;27;20224;-67
2022/08/20 07:16:23;;;;;;;5.80;4.13;;;26.00;75.10;;;;;;5124630;27;20256;-67
2022/08/20 07:18:50;;;;;;;5.03;4.10;;;26.10;75.10;;;;;;5117385;27;20216;-67
2022/08/20 07:21:17;;;;;;;6.43;4.33;;;26.20;74.70;;;;;;5107981;27;20193;-67
2022/08/20 07:23:44;;;;;;;5.07;3.87;;;26.30;74.20;;;;;;5104858;28;20205;-67
2022/08/20 07:26:12;;;;;;;6.17;4.13;;;26.40;74.00;;;;;;5117296;27;20219;-67
2022/08/20 07:28:39;;;;;;;7.43;4.70;;;26.50;73.00;;;;;;5114400;27;20202;-67
2022/08/20 07:33:52;;;;;;;4.03;3.63;;;26.70;72.30;;;;;;5129855;27;20223;-67
2022/08/20 07:36:19;;;;;;;5.37;4.77;;;26.80;72.60;;;;;;5108970;27;20190;-67
2022/08/20 07:38:49;;;;;;;4.50;4.10;;;26.90;72.40;;;;;;5107316;27;20208;-67
2022/08/20 07:41:18;;;;;;;6.33;4.93;;;27.00;72.30;;;;;;5106881;28;20187;-67
2022/08/20 07:43:46;;;;;;;4.60;4.30;;;27.20;71.60;;;;;;5106006;27;20231;-67
2022/08/20 07:46:16;;;;;;;5.17;4.60;;;27.30;71.20;;;;;;5085109;28;20252;-65
2022/08/20 07:48:48;;;;;;;6.70;4.40;;;27.30;68.80;;;;;;5109144;27;20240;-66
2022/08/20 07:51:18;;;;;;;3.93;3.50;;;27.30;69.90;;;;;;5119255;27;20195;-66
2022/08/20 07:53:46;;;;;;;4.63;3.97;;;27.30;70.30;;;;;;5123268;27;20233;-66
2022/08/20 07:56:16;;;;;;;3.93;3.40;;;27.50;70.40;;;;;;5123915;27;20232;-67
2022/08/20 07:58:48;;;;;;;3.73;3.00;;;27.60;69.90;;;;;;5104191;27;20525;-67
2022/08/20 08:01:25;;;;;;;4.10;3.60;;;27.70;69.90;;;;;;5102761;27;20201;-67
2022/08/20 08:03:52;;;;;;;3.93;3.10;;;27.90;68.90;;;;;;5112218;27;20203;-66
2022/08/20 08:06:21;;;;;;;4.47;3.27;;;28.00;68.40;;;;;;5093793;28;20200;-66
2022/08/20 08:09:10;;;;;;;6.20;2.90;;;28.10;68.10;;;;;;5105911;27;20209;-67
2022/08/20 08:11:41;;;;;;;5.30;2.70;;;28.20;67.10;;;;;;5112921;27;20219;-67
2022/08/20 08:14:18;;;;;;;2.70;2.50;;;28.30;67.20;;;;;;5112013;27;20305;-67
2022/08/20 08:16:45;;;;;;;4.03;3.07;;;28.40;66.70;;;;;;5109481;27;20244;-66
2022/08/20 08:19:15;;;;;;;3.90;2.80;;;28.50;66.90;;;;;;5113517;27;20258;-66
2022/08/20 08:21:43;;;;;;;3.50;2.63;;;28.50;66.40;;;;;;5086867;27;20215;-66
2022/08/20 08:24:10;;;;;;;3.17;2.67;;;28.70;66.10;;;;;;5115061;27;20201;-66
2022/08/20 08:26:41;;;;;;;3.50;3.20;;;28.80;66.30;;;;;;5121711;27;20204;-66
2022/08/20 08:29:08;;;;;;;4.87;2.90;;;28.90;65.10;;;;;;5112022;27;20203;-66
2022/08/20 08:31:35;;;;;;;3.73;3.03;;;29.00;65.30;;;;;;5112059;27;20197;-66
2022/08/20 08:34:02;;;;;;;3.03;2.83;;;29.10;64.20;;;;;;5096018;27;20225;-66
2022/08/20 08:36:29;;;;;;;3.70;3.40;;;29.10;64.50;;;;;;5109177;27;20201;-66
2022/08/20 08:38:56;;;;;;;3.00;2.60;;;29.10;64.10;;;;;;5120999;27;20222;-66
2022/08/20 08:41:34;;;;;;;5.00;3.07;;;29.20;63.90;;;;;;5112162;27;20497;-66
2022/08/20 08:44:10;;;;;;;3.43;3.10;;;29.20;63.20;;;;;;5124636;27;20205;-65
2022/08/20 08:46:43;;;;;;;4.73;2.67;;;29.20;63.50;;;;;;5120375;27;20196;-66
2022/08/20 08:49:15;;;;;;;2.40;2.20;;;29.20;62.10;;;;;;5121743;27;20205;-67
2022/08/20 08:51:48;;;;;;;3.20;2.90;;;29.20;62.30;;;;;;5108581;27;20215;-67
2022/08/20 08:54:19;;;;;;;4.47;2.57;;;29.20;63.80;;;;;;5104929;27;20312;-67
2022/08/20 08:56:48;;;;;;;3.00;2.70;;;29.20;64.10;;;;;;5123599;27;20632;-67
2022/08/20 08:59:18;;;;;;;3.90;3.60;;;29.30;62.60;;;;;;5099236;27;20208;-67
2022/08/20 09:01:52;;;;;;;3.43;3.13;;;29.30;62.90;;;;;;5117665;27;20227;-66
2022/08/20 09:04:38;;;;;;;2.87;2.67;;;29.40;62.90;;;;;;5115698;27;20192;-66
2022/08/20 09:07:11;;;;;;;4.00;2.97;;;29.50;61.70;;;;;;5110765;27;20188;-65
2022/08/20 09:09:41;;;;;;;5.37;2.67;;;29.50;60.40;;;;;;5107411;27;20295;-65
2022/08/20 09:12:13;;;;;;;2.63;2.13;;;29.50;61.70;;;;;;5105805;27;20201;-65
2022/08/20 09:14:40;;;;;;;4.83;2.33;;;29.60;61.90;;;;;;5109501;27;20300;-66
2022/08/20 09:17:07;;;;;;;4.17;2.50;;;29.70;61.10;;;;;;5102105;27;20660;-67
2022/08/20 09:19:34;;;;;;;2.60;2.40;;;29.90;61.30;;;;;;5088536;27;20635;-66
2022/08/20 09:22:10;;;;;;;2.67;2.40;;;30.10;61.40;;;;;;5116709;27;20204;-66
2022/08/20 09:24:38;;;;;;;4.33;2.50;;;30.20;60.20;;;;;;5120819;27;20199;-66
2022/08/20 09:27:05;;;;;;;2.40;2.20;;;30.30;60.30;;;;;;5100343;27;20205;-67
2022/08/20 09:29:33;;;;;;;2.40;2.20;;;30.40;59.30;;;;;;5119563;27;20281;-67
2022/08/20 09:32:09;;;;;;;3.87;2.00;;;30.40;59.30;;;;;;5119771;27;20204;-67
2022/08/20 09:34:50;;;;;;;4.73;2.43;;;30.40;59.60;;;;;;5113462;27;20240;-67
2022/08/20 09:37:18;;;;;;;3.20;2.90;;;30.40;59.90;;;;;;5085816;28;20200;-67
2022/08/20 09:39:46;;;;;;;5.43;2.67;;;30.50;60.30;;;;;;5107466;27;20661;-67
2022/08/20 09:42:18;;;;;;;3.67;3.00;;;30.70;60.30;;;;;;5109343;27;20302;-67
2022/08/20 09:44:46;;;;;;;4.50;2.63;;;30.90;59.90;;;;;;5116650;27;20254;-67
2022/08/20 09:47:14;;;;;;;5.13;2.90;;;31.00;59.50;;;;;;5115129;27;20208;-67
2022/08/20 09:49:41;;;;;;;2.73;2.23;;;31.20;59.30;;;;;;5118590;27;20630;-67
2022/08/20 09:52:14;;;;;;;4.43;2.50;;;31.40;59.20;;;;;;5123480;27;20192;-67
2022/08/20 09:54:41;;;;;;;2.67;2.30;;;31.50;58.20;;;;;;5117860;27;20216;-67
2022/08/20 09:57:13;;;;;;;3.10;2.50;;;31.60;57.50;;;;;;5108744;27;20196;-67
2022/08/20 09:59:41;;;;;;;4.00;2.73;;;31.60;56.60;;;;;;5111633;27;20215;-68
2022/08/20 10:02:08;;;;;;;3.53;2.90;;;31.60;57.50;;;;;;5112373;27;20203;-67
2022/08/20 10:04:35;;;;;;;2.40;2.17;;;31.60;57.70;;;;;;5113662;28;20235;-67
2022/08/20 10:07:07;;;;;;;12.77;2.70;;;31.70;57.60;;;;;;5100521;27;20203;-67
2022/08/20 10:09:35;;;;;;;2.03;1.83;;;31.70;56.10;;;;;;5113368;28;20196;-67
2022/08/20 10:12:04;;;;;;;3.00;1.80;;;31.70;56.60;;;;;;5123047;27;20630;-67
2022/08/20 10:14:31;;;;;;;3.73;2.07;;;31.80;54.70;;;;;;5116985;28;20228;-67
2022/08/20 10:17:00;;;;;;;2.03;1.93;;;31.80;54.80;;;;;;5115374;28;20318;-67
2022/08/20 10:19:29;;;;;;;1.83;1.70;;;31.90;56.00;;;;;;5122949;28;20571;-67
2022/08/20 10:21:58;;;;;;;2.93;2.47;;;31.90;56.00;;;;;;5112462;28;20203;-67
2022/08/20 10:24:26;;;;;;;5.47;2.70;;;32.00;55.70;;;;;;5110883;28;20639;-67
2022/08/20 10:26:56;;;;;;;5.13;2.20;;;32.00;54.80;;;;;;5109625;28;20216;-67
2022/08/20 10:29:24;;;;;;;2.87;1.77;;;32.00;55.60;;;;;;5115361;28;20234;-67
2022/08/20 10:31:51;;;;;;;3.30;3.00;;;32.10;56.20;;;;;;5116221;28;20207;-67
2022/08/20 10:34:18;;;;;;;3.10;1.93;;;32.20;55.10;;;;;;5117113;28;20214;-67
2022/08/20 10:36:46;;;;;;;2.33;2.00;;;32.20;55.40;;;;;;5117379;28;20215;-67
2022/08/20 10:39:14;;;;;;;4.00;1.80;;;32.30;55.00;;;;;;5107444;28;20262;-67
2022/08/20 10:41:41;;;;;;;6.40;2.13;;;32.30;55.20;;;;;;5108596;28;20194;-67
2022/08/20 10:44:08;;;;;;;2.33;1.83;;;32.30;55.40;;;;;;5073679;27;20516;-67
2022/08/20 10:46:35;;;;;;;2.53;1.70;;;32.40;55.10;;;;;;5108698;27;20198;-67
2022/08/20 10:49:03;;;;;;;4.10;1.93;;;32.50;54.70;;;;;;5116985;27;20657;-67
2022/08/20 10:51:30;;;;;;;4.53;2.00;;;32.60;54.20;;;;;;5121738;27;20196;-68
2022/08/20 10:53:58;;;;;;;4.70;2.50;;;32.70;53.80;;;;;;5120528;27;20224;-68
2022/08/20 10:56:26;;;;;;;3.83;2.10;;;32.70;53.10;;;;;;5121325;27;20273;-67
2022/08/20 10:58:53;;;;;;;3.50;2.70;;;32.60;53.70;;;;;;5122465;27;20204;-67
2022/08/20 11:01:20;;;;;;;3.17;2.30;;;32.60;52.70;;;;;;5111938;27;20212;-67
2022/08/20 11:03:59;;;;;;;2.73;1.60;;;32.50;52.60;;;;;;5111392;27;20215;-67
2022/08/20 11:06:26;;;;;;;3.30;2.27;;;32.50;52.10;;;;;;5116260;27;20205;-67
2022/08/20 11:08:54;;;;;;;4.60;1.80;;;32.30;52.70;;;;;;5110219;27;20200;-67
2022/08/20 11:11:23;;;;;;;2.97;1.87;;;32.30;52.50;;;;;;5113319;27;20246;-67
2022/08/20 11:13:50;;;;;;;2.77;1.60;;;32.30;52.30;;;;;;5103972;27;20238;-67
2022/08/20 11:16:17;;;;;;;1.93;1.50;;;32.40;51.90;;;;;;5124557;27;20647;-67
2022/08/20 11:18:44;;;;;;;1.50;1.40;;;32.50;51.00;;;;;;5117596;27;20201;-68
2022/08/20 11:21:13;;;;;;;4.33;1.50;;;32.50;50.70;;;;;;5108441;27;20199;-68
2022/08/20 11:23:40;;;;;;;3.13;1.50;;;32.50;50.50;;;;;;5123632;27;20193;-67
2022/08/20 11:26:08;;;;;;;2.00;1.67;;;32.50;50.90;;;;;;5116924;27;20202;-68
2022/08/20 11:28:35;;;;;;;2.63;1.60;;;32.60;50.30;;;;;;5112509;27;20197;-67
2022/08/20 11:31:03;;;;;;;2.60;1.40;;;32.60;50.20;;;;;;5113349;27;20209;-67
2022/08/20 11:33:30;;;;;;;4.40;1.47;;;32.70;50.10;;;;;;5105333;27;20216;-67
2022/08/20 11:35:57;;;;;;;3.00;1.30;;;32.70;49.60;;;;;;5125909;27;20204;-68
2022/08/20 11:38:24;;;;;;;2.13;1.07;;;32.70;49.70;;;;;;5114636;27;20193;-67
2022/08/20 11:40:51;;;;;;;3.33;1.30;;;32.80;48.80;;;;;;5116125;27;20215;-67
2022/08/20 11:43:18;;;;;;;3.23;1.27;;;32.90;48.00;;;;;;5128787;27;20597;-67
2022/08/20 11:45:49;;;;;;;2.43;1.47;;;32.90;47.50;;;;;;5119053;27;20632;-67
2022/08/20 11:48:16;;;;;;;1.40;1.30;;;33.00;47.60;;;;;;5121847;27;20630;-67
2022/08/20 11:50:45;;;;;;;1.83;1.73;;;33.10;48.40;;;;;;5113702;27;20192;-67
2022/08/20 11:53:13;;;;;;;3.00;1.93;;;33.10;49.80;;;;;;5129213;27;20211;-68
2022/08/20 11:55:41;;;;;;;3.20;1.30;;;33.20;49.00;;;;;;5125296;27;20195;-68
2022/08/20 11:58:09;;;;;;;2.30;1.50;;;33.20;48.50;;;;;;5119977;27;20193;-68
2022/08/20 12:00:36;;;;;;;2.43;1.50;;;33.20;49.20;;;;;;5071139;27;20205;-68
2022/08/20 12:03:05;;;;;;;3.10;1.20;;;33.30;49.50;;;;;;5117590;27;20205;-67
2022/08/20 12:05:37;;;;;;;4.20;1.60;;;33.30;48.10;;;;;;5113375;27;20244;-67
2022/08/20 12:08:05;;;;;;;1.90;1.33;;;33.30;47.60;;;;;;5113086;27;20191;-67
2022/08/20 12:10:32;;;;;;;2.93;1.50;;;33.30;48.60;;;;;;5114104;27;20196;-67
2022/08/20 12:12:59;;;;;;;3.67;1.57;;;33.30;49.00;;;;;;5106521;27;20209;-67
2022/08/20 12:15:31;;;;;;;1.50;1.40;;;33.40;48.30;;;;;;5109862;27;21512;-68
2022/08/20 12:17:59;;;;;;;2.57;1.57;;;33.50;47.40;;;;;;5111112;27;20236;-67
2022/08/20 12:20:27;;;;;;;1.60;1.13;;;33.40;46.70;;;;;;5105395;27;20204;-67
2022/08/20 12:22:54;;;;;;;2.80;1.43;;;33.30;47.00;;;;;;5121383;27;20329;-67
2022/08/20 12:25:21;;;;;;;2.30;1.00;;;33.20;47.40;;;;;;5127051;27;20704;-68
2022/08/20 12:27:48;;;;;;;1.60;1.23;;;33.20;46.30;;;;;;5123960;27;20214;-67
2022/08/20 12:30:19;;;;;;;2.13;1.50;;;33.30;47.00;;;;;;5116861;27;20200;-68
2022/08/20 12:32:46;;;;;;;2.93;1.20;;;33.30;47.90;;;;;;5113165;27;20211;-68
2022/08/20 12:35:15;;;;;;;1.17;1.07;;;33.40;47.50;;;;;;5100633;28;20235;-68
2022/08/20 12:37:44;;;;;;;1.30;1.20;;;33.40;47.20;;;;;;5112373;27;20206;-68
2022/08/20 12:40:16;;;;;;;1.20;0.80;;;33.50;46.90;;;;;;5116395;27;20189;-69
2022/08/20 12:42:56;;;;;;;1.10;1.00;;;33.60;44.70;;;;;;5115384;27;20235;-68
2022/08/20 12:45:23;;;;;;;3.63;1.27;;;33.50;45.80;;;;;;5115883;27;20204;-68
2022/08/20 12:47:50;;;;;;;4.10;1.13;;;33.50;45.80;;;;;;5104711;27;20610;-68
2022/08/20 12:50:21;;;;;;;2.50;1.10;;;33.50;45.70;;;;;;5120715;27;20197;-68
2022/08/20 12:52:49;;;;;;;2.60;1.00;;;33.50;45.90;;;;;;5112578;27;20549;-68
2022/08/20 12:55:18;;;;;;;5.73;1.17;;;33.60;46.00;;;;;;5096056;27;20214;-68
2022/08/20 12:57:48;;;;;;;1.47;1.00;;;33.60;44.30;;;;;;5081515;28;20196;-67
2022/08/20 13:00:25;;;;;;;2.80;1.00;;;33.60;42.90;;;;;;5096549;27;20207;-69
2022/08/20 13:02:54;;;;;;;1.10;1.00;;;33.60;44.10;;;;;;5117739;27;20191;-67
2022/08/20 13:05:22;;;;;;;1.67;1.00;;;33.60;44.80;;;;;;5113808;27;20192;-68
2022/08/20 13:07:49;;;;;;;5.70;1.23;;;33.70;45.20;;;;;;5125799;27;20200;-68